sensor_id;sensor_type;location;lat;lon;timestamp;pressure;altitude;pressure_sealevel;temperature;humidity
25944;BME280;13742;49.306;8.636;2023-04-26T00:00:19;100641.30;;;7.55;80.05
25944;BME280;13742;49.306;8.636;2023-04-26T00:01:20;100643.10;;;7.54;79.78
25944;BME280;13742;49.306;8.636;2023-04-26T00:02:19;100644.16;;;7.49;79.90
25944;BME280;13742;49.306;8.636;2023-04-26T00:03:19;100643.83;;;7.35;80.29
25944;BME280;13742;49.306;8.636;2023-04-26T00:04:19;100641.91;;;7.39;80.38
25944;BME280;13742;49.306;8.636;2023-04-26T00:05:20;100644.03;;;7.41;80.36
25944;BME280;13742;49.306;8.636;2023-04-26T00:06:19;100645.23;;;7.43;80.19
25944;BME280;13742;49.306;8.636;2023-04-26T00:07:19;100644.59;;;7.42;80.08
25944;BME280;13742;49.306;8.636;2023-04-26T00:08:19;100640.50;;;7.40;79.80
25944;BME280;13742;49.306;8.636;2023-04-26T00:09:19;100642.33;;;7.39;79.65
25944;BME280;13742;49.306;8.636;2023-04-26T00:10:19;100640.10;;;7.38;79.34
25944;BME280;13742;49.306;8.636;2023-04-26T00:11:19;100643.31;;;7.36;79.41
25944;BME280;13742;49.306;8.636;2023-04-26T00:12:20;100640.88;;;7.34;79.30
25944;BME280;13742;49.306;8.636;2023-04-26T00:13:19;100644.95;;;7.21;79.54
25944;BME280;13742;49.306;8.636;2023-04-26T00:14:20;100642.90;;;7.20;79.81
25944;BME280;13742;49.306;8.636;2023-04-26T00:15:19;100643.30;;;7.21;79.60
25944;BME280;13742;49.306;8.636;2023-04-26T00:16:19;100646.01;;;7.23;79.66
25944;BME280;13742;49.306;8.636;2023-04-26T00:17:19;100642.77;;;7.24;79.54
25944;BME280;13742;49.306;8.636;2023-04-26T00:18:19;100647.77;;;7.23;79.34
25944;BME280;13742;49.306;8.636;2023-04-26T00:19:20;100647.77;;;7.23;79.32
25944;BME280;13742;49.306;8.636;2023-04-26T00:20:19;100651.45;;;7.24;79.21
25944;BME280;13742;49.306;8.636;2023-04-26T00:21:19;100648.45;;;7.25;79.21
25944;BME280;13742;49.306;8.636;2023-04-26T00:22:19;100647.89;;;7.25;79.11
25944;BME280;13742;49.306;8.636;2023-04-26T00:23:19;100650.34;;;7.24;78.64
25944;BME280;13742;49.306;8.636;2023-04-26T00:24:20;100651.75;;;7.25;78.96
25944;BME280;13742;49.306;8.636;2023-04-26T00:25:19;100646.76;;;7.26;78.96
25944;BME280;13742;49.306;8.636;2023-04-26T00:26:20;100650.35;;;7.26;78.89
25944;BME280;13742;49.306;8.636;2023-04-26T00:27:19;100649.74;;;7.28;78.84
25944;BME280;13742;49.306;8.636;2023-04-26T00:28:19;100651.39;;;7.28;78.75
25944;BME280;13742;49.306;8.636;2023-04-26T00:29:19;100653.72;;;7.28;78.72
25944;BME280;13742;49.306;8.636;2023-04-26T00:30:19;100651.56;;;7.29;78.63
25944;BME280;13742;49.306;8.636;2023-04-26T00:31:19;100655.77;;;7.30;78.63
25944;BME280;13742;49.306;8.636;2023-04-26T00:32:19;100653.20;;;7.30;78.53
25944;BME280;13742;49.306;8.636;2023-04-26T00:33:25;100653.80;;;7.30;78.51
25944;BME280;13742;49.306;8.636;2023-04-26T00:34:19;100655.03;;;7.30;78.54
25944;BME280;13742;49.306;8.636;2023-04-26T00:35:19;100654.70;;;7.30;78.34
25944;BME280;13742;49.306;8.636;2023-04-26T00:36:19;100652.38;;;7.29;78.31
25944;BME280;13742;49.306;8.636;2023-04-26T00:37:20;100650.78;;;7.26;78.51
25944;BME280;13742;49.306;8.636;2023-04-26T00:38:19;100649.63;;;7.26;78.46
25944;BME280;13742;49.306;8.636;2023-04-26T00:39:21;100649.22;;;7.26;78.73
25944;BME280;13742;49.306;8.636;2023-04-26T00:40:19;100649.29;;;7.25;78.52
25944;BME280;13742;49.306;8.636;2023-04-26T00:41:19;100646.23;;;7.24;78.54
25944;BME280;13742;49.306;8.636;2023-04-26T00:42:19;100648.23;;;7.21;78.18
25944;BME280;13742;49.306;8.636;2023-04-26T00:43:19;100649.27;;;7.21;78.48
25944;BME280;13742;49.306;8.636;2023-04-26T00:44:19;100645.48;;;7.21;78.63
25944;BME280;13742;49.306;8.636;2023-04-26T00:45:19;100645.02;;;7.20;78.63
25944;BME280;13742;49.306;8.636;2023-04-26T00:46:19;100647.15;;;7.20;78.61
25944;BME280;13742;49.306;8.636;2023-04-26T00:47:19;100646.47;;;7.20;78.57
25944;BME280;13742;49.306;8.636;2023-04-26T00:48:19;100647.76;;;7.21;78.70
25944;BME280;13742;49.306;8.636;2023-04-26T00:49:22;100646.64;;;7.21;78.79
25944;BME280;13742;49.306;8.636;2023-04-26T00:50:19;100647.83;;;7.22;78.94
25944;BME280;13742;49.306;8.636;2023-04-26T00:51:19;100647.66;;;7.23;79.00
25944;BME280;13742;49.306;8.636;2023-04-26T00:52:19;100650.39;;;7.23;79.16
25944;BME280;13742;49.306;8.636;2023-04-26T00:53:19;100656.08;;;7.24;79.46
25944;BME280;13742;49.306;8.636;2023-04-26T00:54:20;100654.94;;;7.24;79.22
25944;BME280;13742;49.306;8.636;2023-04-26T00:55:20;100656.95;;;7.24;79.37
25944;BME280;13742;49.306;8.636;2023-04-26T00:56:19;100654.14;;;7.23;79.22
25944;BME280;13742;49.306;8.636;2023-04-26T00:57:20;100653.30;;;7.21;79.24
25944;BME280;13742;49.306;8.636;2023-04-26T00:58:19;100652.70;;;7.20;79.52
25944;BME280;13742;49.306;8.636;2023-04-26T00:59:19;100651.78;;;7.19;79.67
25944;BME280;13742;49.306;8.636;2023-04-26T01:00:20;100653.80;;;7.19;79.30
25944;BME280;13742;49.306;8.636;2023-04-26T01:01:20;100650.47;;;7.19;79.47
25944;BME280;13742;49.306;8.636;2023-04-26T01:02:19;100648.34;;;7.19;79.32
25944;BME280;13742;49.306;8.636;2023-04-26T01:03:19;100650.80;;;7.19;79.38
25944;BME280;13742;49.306;8.636;2023-04-26T01:04:19;100655.48;;;7.21;80.01
25944;BME280;13742;49.306;8.636;2023-04-26T01:05:19;100651.23;;;7.21;80.24
25944;BME280;13742;49.306;8.636;2023-04-26T01:06:19;100651.05;;;7.19;80.11
25944;BME280;13742;49.306;8.636;2023-04-26T01:07:19;100652.06;;;7.18;80.23
25944;BME280;13742;49.306;8.636;2023-04-26T01:08:20;100654.04;;;7.18;79.95
25944;BME280;13742;49.306;8.636;2023-04-26T01:09:19;100651.48;;;7.17;79.89
25944;BME280;13742;49.306;8.636;2023-04-26T01:10:19;100648.25;;;7.17;80.04
25944;BME280;13742;49.306;8.636;2023-04-26T01:11:19;100652.39;;;7.18;80.38
25944;BME280;13742;49.306;8.636;2023-04-26T01:12:19;100650.19;;;7.15;80.47
25944;BME280;13742;49.306;8.636;2023-04-26T01:13:20;100655.73;;;7.11;80.58
25944;BME280;13742;49.306;8.636;2023-04-26T01:14:20;100654.63;;;7.11;80.03
25944;BME280;13742;49.306;8.636;2023-04-26T01:15:19;100656.52;;;7.09;80.47
25944;BME280;13742;49.306;8.636;2023-04-26T01:16:19;100658.19;;;7.07;80.52
25944;BME280;13742;49.306;8.636;2023-04-26T01:17:19;100658.10;;;7.05;80.67
25944;BME280;13742;49.306;8.636;2023-04-26T01:18:19;100662.23;;;7.06;80.69
25944;BME280;13742;49.306;8.636;2023-04-26T01:19:20;100658.66;;;7.03;80.78
25944;BME280;13742;49.306;8.636;2023-04-26T01:20:20;100661.59;;;7.02;80.78
25944;BME280;13742;49.306;8.636;2023-04-26T01:21:20;100656.05;;;7.01;80.64
25944;BME280;13742;49.306;8.636;2023-04-26T01:22:20;100662.98;;;6.99;80.50
25944;BME280;13742;49.306;8.636;2023-04-26T01:23:19;100659.55;;;6.96;80.29
25944;BME280;13742;49.306;8.636;2023-04-26T01:24:19;100660.70;;;6.94;80.55
25944;BME280;13742;49.306;8.636;2023-04-26T01:25:19;100664.77;;;6.90;80.59
25944;BME280;13742;49.306;8.636;2023-04-26T01:26:19;100666.14;;;6.85;80.54
25944;BME280;13742;49.306;8.636;2023-04-26T01:27:19;100663.66;;;6.82;80.48
25944;BME280;13742;49.306;8.636;2023-04-26T01:28:19;100660.56;;;6.81;79.73
25944;BME280;13742;49.306;8.636;2023-04-26T01:29:20;100660.61;;;6.80;79.98
25944;BME280;13742;49.306;8.636;2023-04-26T01:30:19;100656.51;;;6.80;79.97
25944;BME280;13742;49.306;8.636;2023-04-26T01:31:20;100657.63;;;6.79;79.89
25944;BME280;13742;49.306;8.636;2023-04-26T01:32:19;100658.19;;;6.78;79.52
25944;BME280;13742;49.306;8.636;2023-04-26T01:33:19;100655.51;;;6.77;79.44
25944;BME280;13742;49.306;8.636;2023-04-26T01:34:19;100650.26;;;6.77;79.56
25944;BME280;13742;49.306;8.636;2023-04-26T01:35:20;100652.15;;;6.75;79.20
25944;BME280;13742;49.306;8.636;2023-04-26T01:36:19;100652.38;;;6.74;79.25
25944;BME280;13742;49.306;8.636;2023-04-26T01:37:19;100650.13;;;6.74;79.28
25944;BME280;13742;49.306;8.636;2023-04-26T01:38:19;100652.34;;;6.74;79.36
25944;BME280;13742;49.306;8.636;2023-04-26T01:39:19;100649.03;;;6.72;79.29
25944;BME280;13742;49.306;8.636;2023-04-26T01:40:20;100652.64;;;6.70;79.24
25944;BME280;13742;49.306;8.636;2023-04-26T01:41:19;100650.38;;;6.69;79.16
25944;BME280;13742;49.306;8.636;2023-04-26T01:42:19;100652.69;;;6.66;79.08
25944;BME280;13742;49.306;8.636;2023-04-26T01:43:21;100650.34;;;6.65;79.29
25944;BME280;13742;49.306;8.636;2023-04-26T01:44:19;100650.39;;;6.63;79.16
25944;BME280;13742;49.306;8.636;2023-04-26T01:45:19;100648.44;;;6.61;79.29
25944;BME280;13742;49.306;8.636;2023-04-26T01:46:19;100648.80;;;6.58;79.28
25944;BME280;13742;49.306;8.636;2023-04-26T01:47:19;100649.25;;;6.57;79.18
25944;BME280;13742;49.306;8.636;2023-04-26T01:48:19;100647.13;;;6.56;79.16
25944;BME280;13742;49.306;8.636;2023-04-26T01:49:19;100650.23;;;6.53;79.42
25944;BME280;13742;49.306;8.636;2023-04-26T01:50:19;100648.64;;;6.53;79.23
25944;BME280;13742;49.306;8.636;2023-04-26T01:51:20;100653.31;;;6.53;79.29
25944;BME280;13742;49.306;8.636;2023-04-26T01:52:19;100651.63;;;6.51;79.04
25944;BME280;13742;49.306;8.636;2023-04-26T01:53:20;100651.18;;;6.51;79.43
25944;BME280;13742;49.306;8.636;2023-04-26T01:54:20;100651.34;;;6.51;79.35
25944;BME280;13742;49.306;8.636;2023-04-26T01:55:19;100648.97;;;6.49;79.20
25944;BME280;13742;49.306;8.636;2023-04-26T01:56:19;100649.36;;;6.47;79.09
25944;BME280;13742;49.306;8.636;2023-04-26T01:57:20;100649.51;;;6.46;79.03
25944;BME280;13742;49.306;8.636;2023-04-26T01:58:19;100649.00;;;6.43;79.00
25944;BME280;13742;49.306;8.636;2023-04-26T01:59:19;100651.23;;;6.40;79.30
25944;BME280;13742;49.306;8.636;2023-04-26T02:00:19;100651.19;;;6.35;79.31
25944;BME280;13742;49.306;8.636;2023-04-26T02:01:20;100652.00;;;6.30;79.31
25944;BME280;13742;49.306;8.636;2023-04-26T02:02:20;100651.59;;;6.29;79.40
25944;BME280;13742;49.306;8.636;2023-04-26T02:03:20;100653.13;;;6.28;79.33
25944;BME280;13742;49.306;8.636;2023-04-26T02:04:19;100650.55;;;6.25;79.34
25944;BME280;13742;49.306;8.636;2023-04-26T02:05:19;100652.80;;;6.21;79.24
25944;BME280;13742;49.306;8.636;2023-04-26T02:06:20;100653.89;;;6.18;79.30
25944;BME280;13742;49.306;8.636;2023-04-26T02:07:19;100653.31;;;6.18;79.22
25944;BME280;13742;49.306;8.636;2023-04-26T02:08:19;100650.88;;;6.15;79.29
25944;BME280;13742;49.306;8.636;2023-04-26T02:09:19;100652.88;;;6.15;79.34
25944;BME280;13742;49.306;8.636;2023-04-26T02:10:19;100650.94;;;6.14;79.33
25944;BME280;13742;49.306;8.636;2023-04-26T02:11:20;100650.09;;;6.12;79.29
25944;BME280;13742;49.306;8.636;2023-04-26T02:12:19;100653.03;;;6.10;79.38
25944;BME280;13742;49.306;8.636;2023-04-26T02:13:19;100653.28;;;6.08;79.41
25944;BME280;13742;49.306;8.636;2023-04-26T02:14:19;100655.42;;;6.06;79.36
25944;BME280;13742;49.306;8.636;2023-04-26T02:15:20;100656.47;;;6.07;79.34
25944;BME280;13742;49.306;8.636;2023-04-26T02:16:20;100656.45;;;6.02;79.21
25944;BME280;13742;49.306;8.636;2023-04-26T02:17:20;100657.23;;;6.00;79.18
25944;BME280;13742;49.306;8.636;2023-04-26T02:18:21;100659.94;;;5.98;79.21
25944;BME280;13742;49.306;8.636;2023-04-26T02:19:19;100655.98;;;5.95;79.29
25944;BME280;13742;49.306;8.636;2023-04-26T02:20:19;100654.77;;;5.95;79.27
25944;BME280;13742;49.306;8.636;2023-04-26T02:21:19;100657.38;;;5.94;79.15
25944;BME280;13742;49.306;8.636;2023-04-26T02:22:22;100656.50;;;5.92;78.89
25944;BME280;13742;49.306;8.636;2023-04-26T02:23:19;100657.14;;;5.93;79.24
25944;BME280;13742;49.306;8.636;2023-04-26T02:24:20;100654.55;;;5.92;79.01
25944;BME280;13742;49.306;8.636;2023-04-26T02:25:19;100653.30;;;5.91;78.94
25944;BME280;13742;49.306;8.636;2023-04-26T02:26:19;100655.07;;;5.92;79.09
25944;BME280;13742;49.306;8.636;2023-04-26T02:27:19;100653.28;;;5.91;79.20
25944;BME280;13742;49.306;8.636;2023-04-26T02:28:19;100654.31;;;5.91;79.27
25944;BME280;13742;49.306;8.636;2023-04-26T02:29:19;100653.46;;;5.91;79.27
25944;BME280;13742;49.306;8.636;2023-04-26T02:30:19;100654.25;;;5.88;79.21
25944;BME280;13742;49.306;8.636;2023-04-26T02:31:19;100655.23;;;5.89;79.32
25944;BME280;13742;49.306;8.636;2023-04-26T02:32:19;100654.81;;;5.85;79.51
25944;BME280;13742;49.306;8.636;2023-04-26T02:33:19;100656.17;;;5.87;79.45
25944;BME280;13742;49.306;8.636;2023-04-26T02:34:19;100654.95;;;5.86;79.38
25944;BME280;13742;49.306;8.636;2023-04-26T02:35:19;100658.22;;;5.85;79.42
25944;BME280;13742;49.306;8.636;2023-04-26T02:36:19;100659.50;;;5.84;79.25
25944;BME280;13742;49.306;8.636;2023-04-26T02:37:21;100660.29;;;5.84;79.21
25944;BME280;13742;49.306;8.636;2023-04-26T02:38:19;100657.29;;;5.82;79.13
25944;BME280;13742;49.306;8.636;2023-04-26T02:39:19;100659.71;;;5.82;79.10
25944;BME280;13742;49.306;8.636;2023-04-26T02:40:19;100662.84;;;5.80;79.02
25944;BME280;13742;49.306;8.636;2023-04-26T02:41:19;100665.98;;;5.78;79.03
25944;BME280;13742;49.306;8.636;2023-04-26T02:42:19;100665.04;;;5.78;79.29
25944;BME280;13742;49.306;8.636;2023-04-26T02:43:19;100666.28;;;5.77;79.28
25944;BME280;13742;49.306;8.636;2023-04-26T02:44:19;100664.59;;;5.78;79.13
25944;BME280;13742;49.306;8.636;2023-04-26T02:45:19;100660.38;;;5.76;78.74
25944;BME280;13742;49.306;8.636;2023-04-26T02:46:20;100667.00;;;5.75;78.76
25944;BME280;13742;49.306;8.636;2023-04-26T02:47:19;100659.47;;;5.74;78.82
25944;BME280;13742;49.306;8.636;2023-04-26T02:48:19;100659.84;;;5.74;78.72
25944;BME280;13742;49.306;8.636;2023-04-26T02:49:19;100660.25;;;5.72;78.62
25944;BME280;13742;49.306;8.636;2023-04-26T02:50:20;100656.00;;;5.71;78.58
25944;BME280;13742;49.306;8.636;2023-04-26T02:51:19;100653.82;;;5.70;78.59
25944;BME280;13742;49.306;8.636;2023-04-26T02:52:19;100655.23;;;5.70;78.64
25944;BME280;13742;49.306;8.636;2023-04-26T02:53:19;100655.20;;;5.68;78.77
25944;BME280;13742;49.306;8.636;2023-04-26T02:54:19;100656.78;;;5.68;78.95
25944;BME280;13742;49.306;8.636;2023-04-26T02:55:19;100660.55;;;5.64;78.95
25944;BME280;13742;49.306;8.636;2023-04-26T02:56:19;100659.72;;;5.62;79.02
25944;BME280;13742;49.306;8.636;2023-04-26T02:57:19;100659.84;;;5.60;79.16
25944;BME280;13742;49.306;8.636;2023-04-26T02:58:20;100657.81;;;5.61;78.95
25944;BME280;13742;49.306;8.636;2023-04-26T02:59:19;100656.73;;;5.60;78.95
25944;BME280;13742;49.306;8.636;2023-04-26T03:00:19;100659.73;;;5.60;79.02
25944;BME280;13742;49.306;8.636;2023-04-26T03:01:20;100660.85;;;5.59;78.96
25944;BME280;13742;49.306;8.636;2023-04-26T03:02:20;100662.70;;;5.58;79.07
25944;BME280;13742;49.306;8.636;2023-04-26T03:03:19;100667.20;;;5.57;78.85
25944;BME280;13742;49.306;8.636;2023-04-26T03:04:19;100665.47;;;5.55;78.77
25944;BME280;13742;49.306;8.636;2023-04-26T03:05:19;100661.70;;;5.53;78.83
25944;BME280;13742;49.306;8.636;2023-04-26T03:06:19;100661.86;;;5.53;78.70
25944;BME280;13742;49.306;8.636;2023-04-26T03:07:19;100660.88;;;5.49;78.76
25944;BME280;13742;49.306;8.636;2023-04-26T03:08:19;100663.81;;;5.48;78.51
25944;BME280;13742;49.306;8.636;2023-04-26T03:09:19;100664.09;;;5.48;78.84
25944;BME280;13742;49.306;8.636;2023-04-26T03:10:19;100662.53;;;5.46;78.61
25944;BME280;13742;49.306;8.636;2023-04-26T03:11:19;100662.20;;;5.45;78.93
25944;BME280;13742;49.306;8.636;2023-04-26T03:12:19;100663.88;;;5.45;78.64
25944;BME280;13742;49.306;8.636;2023-04-26T03:13:21;100661.51;;;5.44;78.90
25944;BME280;13742;49.306;8.636;2023-04-26T03:14:19;100662.42;;;5.44;78.69
25944;BME280;13742;49.306;8.636;2023-04-26T03:15:19;100657.52;;;5.43;78.74
25944;BME280;13742;49.306;8.636;2023-04-26T03:16:21;100660.75;;;5.43;78.68
25944;BME280;13742;49.306;8.636;2023-04-26T03:17:20;100662.59;;;5.44;79.10
25944;BME280;13742;49.306;8.636;2023-04-26T03:18:19;100663.23;;;5.45;79.19
25944;BME280;13742;49.306;8.636;2023-04-26T03:19:19;100661.22;;;5.43;78.77
25944;BME280;13742;49.306;8.636;2023-04-26T03:20:19;100661.73;;;5.43;78.86
25944;BME280;13742;49.306;8.636;2023-04-26T03:21:19;100664.63;;;5.42;78.98
25944;BME280;13742;49.306;8.636;2023-04-26T03:22:20;100663.20;;;5.42;78.83
25944;BME280;13742;49.306;8.636;2023-04-26T03:23:23;100664.41;;;5.42;78.90
25944;BME280;13742;49.306;8.636;2023-04-26T03:24:19;100663.16;;;5.40;78.75
25944;BME280;13742;49.306;8.636;2023-04-26T03:25:19;100662.48;;;5.39;78.73
25944;BME280;13742;49.306;8.636;2023-04-26T03:26:19;100658.31;;;5.38;78.89
25944;BME280;13742;49.306;8.636;2023-04-26T03:27:19;100666.70;;;5.40;78.96
25944;BME280;13742;49.306;8.636;2023-04-26T03:28:20;100664.47;;;5.40;79.14
25944;BME280;13742;49.306;8.636;2023-04-26T03:29:19;100667.19;;;5.41;79.16
25944;BME280;13742;49.306;8.636;2023-04-26T03:30:19;100665.20;;;5.40;79.03
25944;BME280;13742;49.306;8.636;2023-04-26T03:31:20;100669.54;;;5.40;79.15
25944;BME280;13742;49.306;8.636;2023-04-26T03:32:19;100668.63;;;5.38;79.40
25944;BME280;13742;49.306;8.636;2023-04-26T03:33:19;100669.13;;;5.36;79.43
25944;BME280;13742;49.306;8.636;2023-04-26T03:34:19;100668.42;;;5.34;79.06
25944;BME280;13742;49.306;8.636;2023-04-26T03:35:19;100669.70;;;5.33;79.24
25944;BME280;13742;49.306;8.636;2023-04-26T03:36:19;100670.59;;;5.32;79.16
25944;BME280;13742;49.306;8.636;2023-04-26T03:37:19;100668.95;;;5.32;79.67
25944;BME280;13742;49.306;8.636;2023-04-26T03:38:19;100673.22;;;5.32;79.86
25944;BME280;13742;49.306;8.636;2023-04-26T03:39:19;100668.84;;;5.29;79.23
25944;BME280;13742;49.306;8.636;2023-04-26T03:40:19;100675.24;;;5.28;79.24
25944;BME280;13742;49.306;8.636;2023-04-26T03:41:19;100676.52;;;5.28;79.49
25944;BME280;13742;49.306;8.636;2023-04-26T03:42:19;100675.43;;;5.27;79.64
25944;BME280;13742;49.306;8.636;2023-04-26T03:43:19;100670.80;;;5.25;79.59
25944;BME280;13742;49.306;8.636;2023-04-26T03:44:19;100673.36;;;5.24;79.33
25944;BME280;13742;49.306;8.636;2023-04-26T03:45:19;100675.50;;;5.23;79.35
25944;BME280;13742;49.306;8.636;2023-04-26T03:46:19;100673.14;;;5.22;79.41
25944;BME280;13742;49.306;8.636;2023-04-26T03:47:19;100676.88;;;5.22;79.44
25944;BME280;13742;49.306;8.636;2023-04-26T03:48:19;100678.17;;;5.23;79.48
25944;BME280;13742;49.306;8.636;2023-04-26T03:49:20;100678.79;;;5.22;79.41
25944;BME280;13742;49.306;8.636;2023-04-26T03:50:19;100678.52;;;5.20;79.35
25944;BME280;13742;49.306;8.636;2023-04-26T03:51:19;100679.61;;;5.18;79.42
25944;BME280;13742;49.306;8.636;2023-04-26T03:52:19;100676.69;;;5.16;79.29
25944;BME280;13742;49.306;8.636;2023-04-26T03:53:19;100677.06;;;5.16;79.23
25944;BME280;13742;49.306;8.636;2023-04-26T03:54:19;100683.06;;;5.17;79.19
25944;BME280;13742;49.306;8.636;2023-04-26T03:55:19;100677.39;;;5.16;79.29
25944;BME280;13742;49.306;8.636;2023-04-26T03:56:19;100679.97;;;5.16;79.27
25944;BME280;13742;49.306;8.636;2023-04-26T03:57:19;100678.16;;;5.17;79.65
25944;BME280;13742;49.306;8.636;2023-04-26T03:58:19;100674.67;;;5.17;79.74
25944;BME280;13742;49.306;8.636;2023-04-26T03:59:19;100672.77;;;5.16;79.81
25944;BME280;13742;49.306;8.636;2023-04-26T04:00:19;100673.33;;;5.14;79.57
25944;BME280;13742;49.306;8.636;2023-04-26T04:01:19;100673.85;;;5.15;79.56
25944;BME280;13742;49.306;8.636;2023-04-26T04:02:19;100673.98;;;5.14;79.83
25944;BME280;13742;49.306;8.636;2023-04-26T04:03:20;100671.89;;;5.15;79.89
25944;BME280;13742;49.306;8.636;2023-04-26T04:04:19;100671.58;;;5.13;79.67
25944;BME280;13742;49.306;8.636;2023-04-26T04:05:19;100666.66;;;5.12;79.61
25944;BME280;13742;49.306;8.636;2023-04-26T04:06:19;100668.30;;;5.12;79.67
25944;BME280;13742;49.306;8.636;2023-04-26T04:07:20;100665.84;;;5.12;80.01
25944;BME280;13742;49.306;8.636;2023-04-26T04:08:19;100665.59;;;5.12;80.07
25944;BME280;13742;49.306;8.636;2023-04-26T04:09:19;100666.63;;;5.11;80.14
25944;BME280;13742;49.306;8.636;2023-04-26T04:10:21;100667.34;;;5.10;79.96
25944;BME280;13742;49.306;8.636;2023-04-26T04:11:20;100665.77;;;5.09;79.63
25944;BME280;13742;49.306;8.636;2023-04-26T04:12:19;100664.91;;;5.07;79.59
25944;BME280;13742;49.306;8.636;2023-04-26T04:13:19;100668.77;;;5.08;79.95
25944;BME280;13742;49.306;8.636;2023-04-26T04:14:19;100665.11;;;5.09;80.27
25944;BME280;13742;49.306;8.636;2023-04-26T04:15:19;100665.20;;;5.09;80.25
25944;BME280;13742;49.306;8.636;2023-04-26T04:16:19;100668.28;;;5.08;80.08
25944;BME280;13742;49.306;8.636;2023-04-26T04:17:19;100665.06;;;5.07;79.86
25944;BME280;13742;49.306;8.636;2023-04-26T04:18:19;100663.55;;;5.08;79.95
25944;BME280;13742;49.306;8.636;2023-04-26T04:19:19;100665.72;;;5.07;79.85
25944;BME280;13742;49.306;8.636;2023-04-26T04:20:20;100663.88;;;5.08;79.87
25944;BME280;13742;49.306;8.636;2023-04-26T04:21:19;100662.94;;;5.07;79.95
25944;BME280;13742;49.306;8.636;2023-04-26T04:22:19;100667.03;;;5.07;80.07
25944;BME280;13742;49.306;8.636;2023-04-26T04:23:19;100668.72;;;5.09;80.31
25944;BME280;13742;49.306;8.636;2023-04-26T04:24:19;100669.91;;;5.09;80.47
25944;BME280;13742;49.306;8.636;2023-04-26T04:25:21;100671.13;;;5.10;80.55
25944;BME280;13742;49.306;8.636;2023-04-26T04:26:19;100669.91;;;5.09;80.41
25944;BME280;13742;49.306;8.636;2023-04-26T04:27:20;100672.66;;;5.09;80.44
25944;BME280;13742;49.306;8.636;2023-04-26T04:28:21;100673.08;;;5.08;80.45
25944;BME280;13742;49.306;8.636;2023-04-26T04:29:19;100672.59;;;5.07;80.17
25944;BME280;13742;49.306;8.636;2023-04-26T04:30:19;100672.88;;;5.08;80.33
25944;BME280;13742;49.306;8.636;2023-04-26T04:31:19;100674.70;;;5.09;80.76
25944;BME280;13742;49.306;8.636;2023-04-26T04:32:19;100676.77;;;5.10;80.89
25944;BME280;13742;49.306;8.636;2023-04-26T04:33:19;100673.18;;;5.09;80.85
25944;BME280;13742;49.306;8.636;2023-04-26T04:34:19;100675.30;;;5.10;80.83
25944;BME280;13742;49.306;8.636;2023-04-26T04:35:21;100679.53;;;5.11;80.61
25944;BME280;13742;49.306;8.636;2023-04-26T04:36:19;100678.13;;;5.09;80.43
25944;BME280;13742;49.306;8.636;2023-04-26T04:37:20;100683.95;;;5.13;81.42
25944;BME280;13742;49.306;8.636;2023-04-26T04:38:19;100682.92;;;5.15;82.23
25944;BME280;13742;49.306;8.636;2023-04-26T04:39:19;100681.52;;;5.19;82.67
25944;BME280;13742;49.306;8.636;2023-04-26T04:40:19;100686.89;;;5.22;82.58
25944;BME280;13742;49.306;8.636;2023-04-26T04:41:21;100686.66;;;5.26;82.99
25944;BME280;13742;49.306;8.636;2023-04-26T04:42:19;100685.62;;;5.27;82.29
25944;BME280;13742;49.306;8.636;2023-04-26T04:43:20;100689.22;;;5.27;81.84
25944;BME280;13742;49.306;8.636;2023-04-26T04:44:19;100690.73;;;5.27;81.55
25944;BME280;13742;49.306;8.636;2023-04-26T04:45:19;100689.29;;;5.26;81.26
25944;BME280;13742;49.306;8.636;2023-04-26T04:46:19;100693.33;;;5.26;81.12
25944;BME280;13742;49.306;8.636;2023-04-26T04:47:19;100694.82;;;5.25;81.12
25944;BME280;13742;49.306;8.636;2023-04-26T04:48:20;100695.20;;;5.25;81.08
25944;BME280;13742;49.306;8.636;2023-04-26T04:49:19;100692.51;;;5.24;80.93
25944;BME280;13742;49.306;8.636;2023-04-26T04:50:19;100695.42;;;5.24;80.98
25944;BME280;13742;49.306;8.636;2023-04-26T04:51:20;100699.11;;;5.23;81.15
25944;BME280;13742;49.306;8.636;2023-04-26T04:52:22;100698.26;;;5.23;80.99
25944;BME280;13742;49.306;8.636;2023-04-26T04:53:19;100702.33;;;5.24;80.96
25944;BME280;13742;49.306;8.636;2023-04-26T04:54:19;100697.91;;;5.24;80.96
25944;BME280;13742;49.306;8.636;2023-04-26T04:55:19;100702.50;;;5.26;80.89
25944;BME280;13742;49.306;8.636;2023-04-26T04:56:20;100703.88;;;5.25;80.77
25944;BME280;13742;49.306;8.636;2023-04-26T04:57:19;100702.59;;;5.25;80.72
25944;BME280;13742;49.306;8.636;2023-04-26T04:58:21;100704.73;;;5.25;80.76
25944;BME280;13742;49.306;8.636;2023-04-26T04:59:19;100704.08;;;5.25;80.61
25944;BME280;13742;49.306;8.636;2023-04-26T05:00:19;100701.80;;;5.24;80.63
25944;BME280;13742;49.306;8.636;2023-04-26T05:01:19;100705.34;;;5.25;80.62
25944;BME280;13742;49.306;8.636;2023-04-26T05:02:19;100706.03;;;5.25;80.59
25944;BME280;13742;49.306;8.636;2023-04-26T05:03:19;100703.75;;;5.25;80.67
25944;BME280;13742;49.306;8.636;2023-04-26T05:04:19;100704.52;;;5.23;81.38
25944;BME280;13742;49.306;8.636;2023-04-26T05:05:19;100710.57;;;5.23;81.11
25944;BME280;13742;49.306;8.636;2023-04-26T05:06:19;100713.41;;;5.25;81.06
25944;BME280;13742;49.306;8.636;2023-04-26T05:07:19;100710.13;;;5.25;81.17
25944;BME280;13742;49.306;8.636;2023-04-26T05:08:19;100715.13;;;5.27;81.26
25944;BME280;13742;49.306;8.636;2023-04-26T05:09:20;100716.08;;;5.29;81.37
25944;BME280;13742;49.306;8.636;2023-04-26T05:10:19;100719.01;;;5.32;81.92
25944;BME280;13742;49.306;8.636;2023-04-26T05:11:19;100717.17;;;5.34;81.96
25944;BME280;13742;49.306;8.636;2023-04-26T05:12:19;100716.12;;;5.36;81.54
25944;BME280;13742;49.306;8.636;2023-04-26T05:13:19;100714.94;;;5.38;81.31
25944;BME280;13742;49.306;8.636;2023-04-26T05:14:19;100716.00;;;5.40;81.44
25944;BME280;13742;49.306;8.636;2023-04-26T05:15:19;100718.98;;;5.42;81.32
25944;BME280;13742;49.306;8.636;2023-04-26T05:16:19;100718.23;;;5.43;81.41
25944;BME280;13742;49.306;8.636;2023-04-26T05:17:19;100719.06;;;5.45;81.67